EJU2041 EGCC-LIMC
Flight info
| Callsign | EJU2041 |
|---|---|
| Flight time | N/A |
| Altitude | 39000 |
| Route | SANBA1Y SANBA N859 HON L15 FINMA DCT CHT DCT ITVIP DCT KONAN DCT KOK DCT CIV DCT SUTAL DCT GTQ DCT OBORN DCT DEVDI DCT BASGO/N0391F290 Z424 AKASU/N0336F190 Z424 RIXUV RIXUV3H LIMC/23R |
| Aircraft | A20N/M-V/N |
Departure
| Time | N/A |
|---|---|
| Airport | Manchester Airport (EGCC) |
Arrival
| Time | 2026-05-07 20:16 |
|---|---|
| Airport | Milan Malpensa International Airport (LIMC) |
| Time | Latitude | Longitude | Altitude | Speed | Heading |
|---|---|---|---|---|---|
| 2026-05-07 19:27 | 49.67378 | 5.93145 | 39054 ft | 462 kts | 127° |
| 2026-05-07 19:27 | 49.65525 | 5.97295 | 39052 ft | 461 kts | 127° |
| 2026-05-07 19:28 | 49.61907 | 6.05379 | 39048 ft | 461 kts | 127° |
| 2026-05-07 19:28 | 49.58250 | 6.13524 | 39044 ft | 461 kts | 128° |
| 2026-05-07 19:29 | 49.53786 | 6.20435 | 39036 ft | 452 kts | 150° |
| 2026-05-07 19:29 | 49.48441 | 6.25524 | 39036 ft | 451 kts | 151° |
| 2026-05-07 19:30 | 49.43103 | 6.30527 | 39038 ft | 451 kts | 152° |
| 2026-05-07 19:30 | 49.37735 | 6.35535 | 39045 ft | 452 kts | 152° |
| 2026-05-07 19:31 | 49.32374 | 6.40523 | 39054 ft | 452 kts | 152° |
| 2026-05-07 19:31 | 49.26983 | 6.45526 | 39052 ft | 453 kts | 152° |
| 2026-05-07 19:32 | 49.21581 | 6.50527 | 39057 ft | 454 kts | 152° |
| 2026-05-07 19:32 | 49.16175 | 6.55519 | 39055 ft | 454 kts | 152° |
| 2026-05-07 19:33 | 49.10758 | 6.60508 | 39060 ft | 455 kts | 152° |
| 2026-05-07 19:33 | 49.05326 | 6.65499 | 39059 ft | 455 kts | 152° |
| 2026-05-07 19:34 | 48.99883 | 6.70486 | 39060 ft | 456 kts | 152° |
| 2026-05-07 19:34 | 48.94498 | 6.75466 | 39062 ft | 456 kts | 151° |
| 2026-05-07 19:35 | 48.89086 | 6.80543 | 39066 ft | 456 kts | 152° |
| 2026-05-07 19:35 | 48.83698 | 6.85574 | 39066 ft | 456 kts | 152° |
| 2026-05-07 19:36 | 48.78278 | 6.90612 | 39066 ft | 457 kts | 152° |
| 2026-05-07 19:36 | 48.72841 | 6.95651 | 39063 ft | 457 kts | 152° |
| 2026-05-07 19:37 | 48.67449 | 7.00636 | 39067 ft | 457 kts | 152° |
| 2026-05-07 19:37 | 48.62024 | 7.05638 | 39064 ft | 457 kts | 152° |
| 2026-05-07 19:38 | 48.56593 | 7.10633 | 39063 ft | 457 kts | 152° |
| 2026-05-07 19:38 | 48.51146 | 7.15631 | 39071 ft | 457 kts | 152° |
| 2026-05-07 19:39 | 48.45568 | 7.20180 | 39067 ft | 453 kts | 160° |
| 2026-05-07 19:39 | 48.39663 | 7.23381 | 39055 ft | 450 kts | 166° |
| 2026-05-07 19:40 | 48.33717 | 7.26216 | 39052 ft | 450 kts | 166° |
| 2026-05-07 19:40 | 48.27806 | 7.29061 | 39052 ft | 451 kts | 166° |
| 2026-05-07 19:41 | 48.21834 | 7.31937 | 39051 ft | 451 kts | 166° |
| 2026-05-07 19:41 | 48.15859 | 7.34809 | 39047 ft | 450 kts | 166° |
| 2026-05-07 19:42 | 48.09885 | 7.37671 | 39047 ft | 450 kts | 166° |
| 2026-05-07 19:42 | 48.03918 | 7.40523 | 39045 ft | 450 kts | 166° |
| 2026-05-07 19:43 | 47.97986 | 7.43352 | 39048 ft | 450 kts | 166° |
| 2026-05-07 19:43 | 47.92015 | 7.46193 | 39051 ft | 450 kts | 166° |
| 2026-05-07 19:44 | 47.86051 | 7.49023 | 39055 ft | 450 kts | 166° |
| 2026-05-07 19:44 | 47.80390 | 7.51703 | 39054 ft | 450 kts | 166° |
| 2026-05-07 19:45 | 47.74427 | 7.54547 | 39049 ft | 451 kts | 164° |
| 2026-05-07 19:45 | 47.68622 | 7.58156 | 39049 ft | 453 kts | 160° |
| 2026-05-07 19:46 | 47.62852 | 7.61921 | 39057 ft | 453 kts | 160° |
| 2026-05-07 19:46 | 47.57068 | 7.65667 | 39047 ft | 454 kts | 160° |
| 2026-05-07 19:47 | 47.51320 | 7.69373 | 39037 ft | 453 kts | 160° |
| 2026-05-07 19:47 | 47.48428 | 7.71233 | 38910 ft | 453 kts | 160° |
| 2026-05-07 19:47 | 47.45532 | 7.73095 | 38694 ft | 453 kts | 160° |
| 2026-05-07 19:48 | 47.42646 | 7.74947 | 38395 ft | 452 kts | 160° |
| 2026-05-07 19:48 | 47.39757 | 7.76799 | 37903 ft | 453 kts | 160° |
| 2026-05-07 19:48 | 47.36844 | 7.78664 | 37197 ft | 455 kts | 160° |
| 2026-05-07 19:48 | 47.33938 | 7.80523 | 36539 ft | 455 kts | 161° |
| 2026-05-07 19:49 | 47.31049 | 7.82369 | 35898 ft | 453 kts | 161° |
| 2026-05-07 19:49 | 47.28159 | 7.84215 | 35249 ft | 453 kts | 161° |
| 2026-05-07 19:49 | 47.25270 | 7.86057 | 34616 ft | 452 kts | 161° |
| 2026-05-07 19:49 | 47.22378 | 7.87899 | 33889 ft | 454 kts | 161° |
| 2026-05-07 19:50 | 47.19465 | 7.89750 | 33115 ft | 454 kts | 161° |
| 2026-05-07 19:50 | 47.16564 | 7.91592 | 32296 ft | 455 kts | 161° |
| 2026-05-07 19:50 | 47.13649 | 7.93439 | 31451 ft | 458 kts | 161° |
| 2026-05-07 19:50 | 47.10737 | 7.95285 | 30910 ft | 453 kts | 161° |
| 2026-05-07 19:51 | 47.07857 | 7.97109 | 30283 ft | 450 kts | 161° |
| 2026-05-07 19:51 | 47.04996 | 7.98918 | 29685 ft | 446 kts | 160° |
| 2026-05-07 19:51 | 47.02166 | 8.00706 | 29128 ft | 441 kts | 160° |
| 2026-05-07 19:51 | 46.99400 | 8.02451 | 28551 ft | 435 kts | 160° |
| 2026-05-07 19:52 | 46.96623 | 8.04199 | 27950 ft | 432 kts | 160° |
| 2026-05-07 19:52 | 46.93869 | 8.05930 | 27376 ft | 428 kts | 160° |
| 2026-05-07 19:52 | 46.91146 | 8.07640 | 26786 ft | 425 kts | 160° |
| 2026-05-07 19:52 | 46.88440 | 8.09337 | 26168 ft | 423 kts | 160° |
| 2026-05-07 19:53 | 46.85750 | 8.11022 | 25635 ft | 418 kts | 160° |
| 2026-05-07 19:53 | 46.83086 | 8.12688 | 25024 ft | 416 kts | 160° |
| 2026-05-07 19:53 | 46.80437 | 8.14344 | 24440 ft | 413 kts | 160° |
| 2026-05-07 19:53 | 46.77802 | 8.15989 | 23873 ft | 410 kts | 159° |
| 2026-05-07 19:54 | 46.75170 | 8.17629 | 23222 ft | 410 kts | 159° |
| 2026-05-07 19:54 | 46.72599 | 8.19232 | 22718 ft | 404 kts | 159° |
| 2026-05-07 19:54 | 46.69994 | 8.20857 | 22190 ft | 399 kts | 159° |
| 2026-05-07 19:54 | 46.67485 | 8.22419 | 21596 ft | 396 kts | 159° |
| 2026-05-07 19:55 | 46.64971 | 8.23984 | 21154 ft | 390 kts | 159° |
| 2026-05-07 19:55 | 46.62487 | 8.25528 | 20636 ft | 388 kts | 159° |
| 2026-05-07 19:55 | 46.60014 | 8.27062 | 20159 ft | 383 kts | 159° |
| 2026-05-07 19:55 | 46.57572 | 8.28577 | 19650 ft | 379 kts | 159° |
| 2026-05-07 19:56 | 46.55162 | 8.30069 | 19136 ft | 376 kts | 159° |
| 2026-05-07 19:56 | 46.52757 | 8.31555 | 18640 ft | 373 kts | 159° |
| 2026-05-07 19:56 | 46.50374 | 8.33027 | 18054 ft | 372 kts | 159° |
| 2026-05-07 19:56 | 46.48032 | 8.34473 | 17606 ft | 367 kts | 159° |
| 2026-05-07 19:57 | 46.45696 | 8.35915 | 17101 ft | 363 kts | 159° |
| 2026-05-07 19:57 | 46.43381 | 8.37342 | 16628 ft | 358 kts | 159° |
| 2026-05-07 19:57 | 46.41091 | 8.38751 | 16126 ft | 355 kts | 159° |
| 2026-05-07 19:57 | 46.38818 | 8.40149 | 15631 ft | 353 kts | 159° |
| 2026-05-07 19:58 | 46.36565 | 8.41534 | 15138 ft | 351 kts | 159° |
| 2026-05-07 19:58 | 46.34326 | 8.42909 | 14685 ft | 348 kts | 159° |
| 2026-05-07 19:58 | 46.32093 | 8.44276 | 14114 ft | 350 kts | 159° |
| 2026-05-07 19:58 | 46.29865 | 8.45642 | 13670 ft | 346 kts | 159° |
| 2026-05-07 19:59 | 46.27612 | 8.46819 | 13100 ft | 344 kts | 166° |
| 2026-05-07 19:59 | 46.25312 | 8.47514 | 12563 ft | 341 kts | 174° |
| 2026-05-07 19:59 | 46.22966 | 8.47845 | 12070 ft | 338 kts | 176° |
| 2026-05-07 19:59 | 46.20627 | 8.48162 | 11527 ft | 337 kts | 175° |
| 2026-05-07 20:00 | 46.18299 | 8.48490 | 11019 ft | 335 kts | 175° |
| 2026-05-07 20:00 | 46.15982 | 8.48821 | 10529 ft | 333 kts | 175° |
| 2026-05-07 20:00 | 46.13705 | 8.49147 | 10318 ft | 322 kts | 175° |
| 2026-05-07 20:00 | 46.11527 | 8.49518 | 10191 ft | 309 kts | 169° |
| 2026-05-07 20:01 | 46.09497 | 8.50305 | 10046 ft | 297 kts | 160° |
| 2026-05-07 20:01 | 46.07582 | 8.51355 | 9693 ft | 292 kts | 159° |
| 2026-05-07 20:01 | 46.05711 | 8.52376 | 9508 ft | 284 kts | 159° |
| 2026-05-07 20:01 | 46.03870 | 8.53372 | 9180 ft | 281 kts | 159° |
| 2026-05-07 20:02 | 46.02047 | 8.54356 | 8827 ft | 278 kts | 159° |
| 2026-05-07 20:02 | 46.00245 | 8.55326 | 8482 ft | 275 kts | 160° |
| 2026-05-07 20:02 | 45.98467 | 8.56282 | 8177 ft | 271 kts | 160° |
| 2026-05-07 20:02 | 45.96708 | 8.57229 | 7840 ft | 268 kts | 160° |
| 2026-05-07 20:03 | 45.94963 | 8.58167 | 7505 ft | 266 kts | 160° |
| 2026-05-07 20:03 | 45.93242 | 8.59091 | 7171 ft | 264 kts | 160° |
| 2026-05-07 20:03 | 45.91511 | 8.60020 | 7015 ft | 274 kts | 160° |
| 2026-05-07 20:03 | 45.89723 | 8.60972 | 6906 ft | 276 kts | 162° |
| 2026-05-07 20:04 | 45.87889 | 8.61742 | 6874 ft | 273 kts | 164° |
| 2026-05-07 20:04 | 45.86051 | 8.62502 | 6875 ft | 275 kts | 164° |
| 2026-05-07 20:04 | 45.84218 | 8.63190 | 6859 ft | 275 kts | 169° |
| 2026-05-07 20:04 | 45.82327 | 8.63570 | 6862 ft | 275 kts | 173° |
| 2026-05-07 20:05 | 45.80425 | 8.63900 | 6857 ft | 275 kts | 173° |
| 2026-05-07 20:05 | 45.78525 | 8.64230 | 6856 ft | 275 kts | 173° |
| 2026-05-07 20:05 | 45.76630 | 8.64561 | 6856 ft | 275 kts | 173° |
| 2026-05-07 20:05 | 45.74730 | 8.64896 | 6857 ft | 275 kts | 173° |
| 2026-05-07 20:06 | 45.72853 | 8.65226 | 6867 ft | 275 kts | 173° |
| 2026-05-07 20:06 | 45.70924 | 8.65564 | 6754 ft | 277 kts | 173° |
| 2026-05-07 20:06 | 45.69036 | 8.65896 | 6411 ft | 277 kts | 173° |
| 2026-05-07 20:06 | 45.67115 | 8.66234 | 5954 ft | 279 kts | 173° |
| 2026-05-07 20:07 | 45.65185 | 8.66572 | 5489 ft | 278 kts | 173° |
| 2026-05-07 20:07 | 45.63284 | 8.66901 | 5033 ft | 272 kts | 173° |
| 2026-05-07 20:07 | 45.61426 | 8.67220 | 4583 ft | 266 kts | 173° |
| 2026-05-07 20:07 | 45.59599 | 8.67532 | 4181 ft | 262 kts | 173° |
| 2026-05-07 20:08 | 45.57815 | 8.67835 | 4013 ft | 253 kts | 173° |
| 2026-05-07 20:08 | 45.56115 | 8.68124 | 3992 ft | 238 kts | 173° |
| 2026-05-07 20:08 | 45.54503 | 8.68398 | 3997 ft | 234 kts | 173° |
| 2026-05-07 20:08 | 45.52906 | 8.68670 | 3998 ft | 230 kts | 173° |
| 2026-05-07 20:09 | 45.51328 | 8.68938 | 4006 ft | 228 kts | 173° |
| 2026-05-07 20:09 | 45.49748 | 8.69207 | 4003 ft | 229 kts | 173° |
| 2026-05-07 20:09 | 45.48166 | 8.69474 | 4001 ft | 228 kts | 173° |
| 2026-05-07 20:10 | 45.45549 | 8.69910 | 4000 ft | 222 kts | 173° |
| 2026-05-07 20:10 | 45.44068 | 8.70155 | 3998 ft | 206 kts | 173° |
| 2026-05-07 20:10 | 45.42670 | 8.70404 | 4058 ft | 205 kts | 167° |
| 2026-05-07 20:10 | 45.41441 | 8.71373 | 4048 ft | 205 kts | 130° |
| 2026-05-07 20:11 | 45.40854 | 8.73174 | 4054 ft | 203 kts | 94° |
| 2026-05-07 20:11 | 45.41127 | 8.75116 | 4053 ft | 203 kts | 58° |
| 2026-05-07 20:11 | 45.42136 | 8.76498 | 4050 ft | 204 kts | 32° |
| 2026-05-07 20:11 | 45.43356 | 8.77530 | 4042 ft | 203 kts | 25° |
| 2026-05-07 20:12 | 45.44659 | 8.78043 | 4023 ft | 187 kts | 4° |
| 2026-05-07 20:12 | 45.45902 | 8.77962 | 3863 ft | 177 kts | 351° |
| 2026-05-07 20:12 | 45.47100 | 8.77658 | 3643 ft | 172 kts | 348° |
| 2026-05-07 20:12 | 45.48263 | 8.77324 | 3428 ft | 169 kts | 348° |
| 2026-05-07 20:13 | 45.49400 | 8.77006 | 3210 ft | 162 kts | 348° |
| 2026-05-07 20:13 | 45.50474 | 8.76714 | 2993 ft | 152 kts | 349° |
| 2026-05-07 20:13 | 45.51480 | 8.76444 | 2808 ft | 141 kts | 348° |
| 2026-05-07 20:13 | 45.52447 | 8.76185 | 2618 ft | 142 kts | 348° |
| 2026-05-07 20:14 | 45.53416 | 8.75928 | 2437 ft | 142 kts | 349° |
| 2026-05-07 20:14 | 45.54384 | 8.75698 | 2257 ft | 140 kts | 349° |
| 2026-05-07 20:14 | 45.55353 | 8.75453 | 2081 ft | 141 kts | 349° |
| 2026-05-07 20:14 | 45.56303 | 8.75198 | 1897 ft | 141 kts | 348° |
| 2026-05-07 20:15 | 45.57280 | 8.74931 | 1684 ft | 141 kts | 348° |
| 2026-05-07 20:15 | 45.58266 | 8.74660 | 1493 ft | 150 kts | 348° |
| 2026-05-07 20:15 | 45.59330 | 8.74367 | 1276 ft | 156 kts | 348° |
| 2026-05-07 20:15 | 45.60356 | 8.74072 | 1014 ft | 144 kts | 348° |
| 2026-05-07 20:16 | 45.61298 | 8.73822 | 839 ft | 132 kts | 349° |
| 2026-05-07 20:16 | 45.62164 | 8.73588 | 742 ft | 118 kts | 348° |
| 2026-05-07 20:16 | 45.62772 | 8.73418 | 741 ft | 60 kts | 349° |
| 2026-05-07 20:16 | 45.63109 | 8.73328 | 741 ft | 46 kts | 348° |
| 2026-05-07 20:17 | 45.63361 | 8.73253 | 738 ft | 35 kts | 350° |
| 2026-05-07 20:17 | 45.63556 | 8.73201 | 739 ft | 9 kts | 348° |
| 2026-05-07 20:17 | 45.63627 | 8.73164 | 741 ft | 12 kts | 333° |
| 2026-05-07 20:17 | 45.63707 | 8.73097 | 741 ft | 15 kts | 323° |
| 2026-05-07 20:18 | 45.63782 | 8.72986 | 740 ft | 12 kts | 307° |
| 2026-05-07 20:18 | 45.63834 | 8.72882 | 740 ft | 14 kts | 305° |
| 2026-05-07 20:18 | 45.63912 | 8.72792 | 740 ft | 15 kts | 356° |
| 2026-05-07 20:18 | 45.64016 | 8.72766 | 740 ft | 13 kts | 348° |
| 2026-05-07 20:19 | 45.64102 | 8.72741 | 740 ft | 14 kts | 349° |
| 2026-05-07 20:19 | 45.64206 | 8.72715 | 740 ft | 16 kts | 351° |
| 2026-05-07 20:19 | 45.64317 | 8.72687 | 740 ft | 15 kts | 349° |
| 2026-05-07 20:19 | 45.64418 | 8.72670 | 740 ft | 14 kts | 353° |
| 2026-05-07 20:20 | 45.64504 | 8.72646 | 740 ft | 12 kts | 348° |
| 2026-05-07 20:20 | 45.64578 | 8.72626 | 740 ft | 10 kts | 349° |
| 2026-05-07 20:20 | 45.64642 | 8.72609 | 739 ft | 9 kts | 349° |
| 2026-05-07 20:20 | 45.64662 | 8.72569 | 740 ft | 4 kts | 259° |
| 2026-05-07 20:21 | 45.64657 | 8.72534 | 740 ft | 3 kts | 260° |
| 2026-05-07 20:21 | 45.64654 | 8.72509 | 740 ft | 2 kts | 259° |
| 2026-05-07 20:21 | 45.64652 | 8.72496 | 740 ft | 0 kts | 259° |